Forest Hill, Maryland
Current Conditions -  °F | °C
As of 1:42 AM on Monday 24 Nov 2014 (Local Time) from KMTN Reporting Station
Moderate Rain Moderate Rain  
Wind Chill: 55°   Ceiling: 1000
Heat Index: 55°   Visibility: 4mi
Dew Point: 55°   Wind: 16mph
Humidity: 100%   Direction: 120°ESE
Pressure: 29.72"   Gusts: 23mph
Location:  39.59°N, 76.39°W
Report Text: KMTN 240642Z AUTO 12014G20KT 4SM RA OVC010 13/13 A2972 RMK AO2 P0013
Loading
Personal Weather Stations






























Interactive Weather Map New forecast layout! Learn more

10-Day Weather Forecast

Advertisements
Track Severe Weather on mobile